Aviation Digital Data Service (ADDS)

Output produced by METARs form (1826 UTC 16 August 2018)
found at http://www.aviationweather.gov/adds/metars/
 
TJBQ 161720Z 1618/1718 09016G25KT P6SM VCTS SCT020CB SCT045 BKN230 
     FM162230 14005KT P6SM -SHRA SCT015 BKN021 BKN030 
     FM171600 08014G20KT P6SM VCSH FEW020
       
TJMZ 161720Z 1618/1718 VRB14G26KT P6SM SHRA VCTS SCT025 BKN030CB OVC060 
     FM162200 06008KT P6SM VCSH FEW025 SCT040 BKN100 
     FM171500 11006KT P6SM SCT030 AMD NOT SKED
       
TJPS 161720Z 1618/1718 15012G20KT P6SM VCTS SCT025 SCT040CB 
     FM162200 10010KT P6SM FEW030 SCT060 
     FM171400 12009G15KT P6SM FEW020 AMD NOT SKED
       
TJSJ 161720Z 1618/1718 07014G22KT P6SM VCTS SCT030 BKN050CB BKN100 
     FM162200 08007KT P6SM VCSH FEW028 SCT070 BKN220 
     FM171400 08010KT P6SM SCT030